Hereford, AZ (85615)

8:12 PM MST on August 28, 2014 (GMT -0700)
Three Canyons Ranch | Change Station
CLOSE
Current Station
Personal Weather Station
Location: Hereford, AZ
Elevation: 4551 ft
Nearby Weather Stations

Elev 4551 ft 31.40 °N, 110.19 °W | Updated 13 seconds ago

Partly Cloudy
Partly Cloudy
73.0 °F
Feels Like 77 °F
N
2.0
Wind Variable Wind from West
Gusts 5.0 mph

Today
High -- | Low -- °F
--% Chance of Precip.
Yesterday
High -- | Low -- °F
Precip. -- in
5:54 AM 6:49 PM
Waxing Crescent, 11% visible
Pressure 29.91 in
Visibility 10.0 miles
Clouds Few 8500 ft
Heat Index 77 °F
Dew Point 52 °F
Humidity 48%
Rainfall 0.00 in
Snow Depth Not available.
UV 0 out of 12
Pollen 5.90 out of 12
Air Quality Not available.
Flu Activity Not available.
METAR KFHU 290255Z 24006KT 10SM FEW085 25/10 A3010 RMK SLP128 53003

More Conditions Fewer Conditions

Pressure 29.91 in
Visibility 10.0 miles
Clouds Few 8500 ft
Heat Index 77 °F
Dew Point 52 °F
Humidity 48%
Rainfall 0.00 in
Snow Depth Not available.
UV 0 out of 12
Pollen 5.90 out of 12
Air Quality Not available.
Flu Activity Not available.
METAR KFHU 290255Z 24006KT 10SM FEW085 25/10 A3010 RMK SLP128 53003

More Conditions Fewer Conditions

10-Day Weather Forecast

Almanac

Astronomy

Aug. 28, 2014 Rise Set
Actual Time 5:54 AM MST 6:49 PM MST
Civil Twilight 5:29 AM MST 7:14 PM MST
Nautical Twilight 4:59 AM MST 7:43 PM MST
Astronomical Twilight 4:29 AM MST 8:13 PM MST
Moon 8:36 AM MST (8/28) 8:30 PM MST (8/28)
Length of Visible Light 13h 44m
Length of Day
12h 54m
Tomorrow will be 1m 48s shorter.
Waxing Crescent, 11% of the Moon is Illuminated
Today
Waxing Crescent
Sep 2
First Quarter
Sep 8
Full
Sep 15
Last Quarter
Sep 24
New

Today's Extremes

State Highs State Lows

Community

WunderPhotos

Upload Photos

1,748,146 photos uploaded!

Nearby

Snow Depth

Station Depth Elevation
Beaver Head 3 in 7990 ft
Snowslide Canyon 0 in 9730 ft

Earthquake Activity

City Distance Mag. Time & Date
No recent earthquake activity has been reported nearby.
Minimum magnitude displayed is 2.5.

Coastal Water Temperatures

Place Temperature
No Stations Reporting

Nearby Weather Stations